Aeroporto :
LOGIN :

Iscrizione | Disclaimer

   EN    FR    IT 

 










Sommario :    VFR   VFR Marginale   IFR   IFR Intensivo   IFR Molto Intensivo
Visibilità : 
Base nubi : 
>= 8 km
>= 3000ft
5 / 8 km
1000 / 3000 ft
1500m / 5 km
500 / 1000 ft
800 / 1500m
200 / 500 ft
< 800m
< 200 ft
Simboli :   Temporali  Nebbia  Neve Forte  Precipitazioni Forti  Vento > 20 kt
SIGMETs :   Varie  Temporali  Ghiacco  Turbolenza  Onda orograficha  Ceneri Vulcaniche







- Altitudine del aeroporto : 226 ft
- Codice IATA : BEX


EGUB - RAF Benson

ULTIMO METAR :
  • 260450Z AUTO 17008KT 4800 // BKN002/// 07/06 Q1007

METARs OBSOLETI :
  • 260350Z AUTO 18008KT 6000 // SCT003/// 07/06 Q1007
  • 260250Z AUTO 18007KT 9999 // SCT005/// 07/06 Q1006

TAF TAF EGUB
Valido dal 25 a 21 ore il 26 a 15 ore UTC


251937Z 2521/2615 17008KT 9999 FEW040
TEMPO 2602/2608 SCT009
PROB30
TEMPO 2608/2613 7000 SHRA SCT018
TEMPO 2613/2615 7000 RA BKN015
ATIS : +44 1491-837766 (x7524)
Nessun NOTAM noto per questo aeroporto.



MetMap, La meteo Aeronautica in un colpo d'occhio ! - Copyright ORBIFLY Dicembre 2007 - Disclaimer

ORBIFLY MET'MAP TEAM :

Programmazione e sviluppo : Alexandra Zaïnal
Concezione e sviluppo : Baudouin d'Aumeries
Co-Programmazione e sviluppo : Marc-Olivier Méhu
Supporto tecnico e logistico : Manuel Goepfert
Aiuto per la traduzione : Arnaldo La Scala

Contatto : metmap@orbifly.com




FONTI E CREDITI :

   NOAA